sensor_id;sensor_type;location;lat;lon;timestamp;temperature;humidity
18880;DHT22;9572;52.378;13.404;2023-10-13T00:01:55;13.90;99.90
18880;DHT22;9572;52.378;13.404;2023-10-13T00:04:24;14.00;99.90
18880;DHT22;9572;52.378;13.404;2023-10-13T00:06:51;13.90;99.90
18880;DHT22;9572;52.378;13.404;2023-10-13T00:09:19;13.90;99.90
18880;DHT22;9572;52.378;13.404;2023-10-13T00:11:52;13.90;99.90
18880;DHT22;9572;52.378;13.404;2023-10-13T00:14:21;13.90;99.90
18880;DHT22;9572;52.378;13.404;2023-10-13T00:16:50;13.90;99.90
18880;DHT22;9572;52.378;13.404;2023-10-13T00:19:31;14.00;99.90
18880;DHT22;9572;52.378;13.404;2023-10-13T00:22:11;13.90;99.90
18880;DHT22;9572;52.378;13.404;2023-10-13T00:24:39;13.90;99.90
18880;DHT22;9572;52.378;13.404;2023-10-13T00:27:14;13.90;99.90
18880;DHT22;9572;52.378;13.404;2023-10-13T00:29:57;13.90;99.90
18880;DHT22;9572;52.378;13.404;2023-10-13T00:32:48;13.90;99.90
18880;DHT22;9572;52.378;13.404;2023-10-13T00:35:20;13.90;99.90
18880;DHT22;9572;52.378;13.404;2023-10-13T00:37:54;13.90;99.90
18880;DHT22;9572;52.378;13.404;2023-10-13T00:40:22;13.90;99.90
18880;DHT22;9572;52.378;13.404;2023-10-13T00:43:12;13.90;99.90
18880;DHT22;9572;52.378;13.404;2023-10-13T00:45:59;13.90;99.90
18880;DHT22;9572;52.378;13.404;2023-10-13T00:48:35;13.90;99.90
18880;DHT22;9572;52.378;13.404;2023-10-13T00:51:08;13.90;99.90
18880;DHT22;9572;52.378;13.404;2023-10-13T00:53:44;13.90;99.90
18880;DHT22;9572;52.378;13.404;2023-10-13T00:56:13;13.90;99.90
18880;DHT22;9572;52.378;13.404;2023-10-13T00:58:54;13.90;99.90
18880;DHT22;9572;52.378;13.404;2023-10-13T01:01:23;13.90;99.90
18880;DHT22;9572;52.378;13.404;2023-10-13T01:04:02;13.90;99.90
18880;DHT22;9572;52.378;13.404;2023-10-13T01:06:30;13.90;99.90
18880;DHT22;9572;52.378;13.404;2023-10-13T01:09:01;13.90;99.90
18880;DHT22;9572;52.378;13.404;2023-10-13T01:11:36;13.90;99.90
18880;DHT22;9572;52.378;13.404;2023-10-13T01:14:05;13.90;99.90
18880;DHT22;9572;52.378;13.404;2023-10-13T01:16:33;13.90;99.90
18880;DHT22;9572;52.378;13.404;2023-10-13T01:19:01;13.90;99.90
18880;DHT22;9572;52.378;13.404;2023-10-13T01:21:31;13.80;99.90
18880;DHT22;9572;52.378;13.404;2023-10-13T01:24:05;13.80;99.90
18880;DHT22;9572;52.378;13.404;2023-10-13T01:26:33;13.80;99.90
18880;DHT22;9572;52.378;13.404;2023-10-13T01:29:05;13.80;99.90
18880;DHT22;9572;52.378;13.404;2023-10-13T01:31:40;13.80;99.90
18880;DHT22;9572;52.378;13.404;2023-10-13T01:34:13;13.70;99.90
18880;DHT22;9572;52.378;13.404;2023-10-13T01:36:45;13.70;99.90
18880;DHT22;9572;52.378;13.404;2023-10-13T01:39:14;13.80;99.90
18880;DHT22;9572;52.378;13.404;2023-10-13T01:41:42;13.70;99.90
18880;DHT22;9572;52.378;13.404;2023-10-13T01:44:09;13.80;99.90
18880;DHT22;9572;52.378;13.404;2023-10-13T01:46:40;13.80;99.90
18880;DHT22;9572;52.378;13.404;2023-10-13T01:49:08;13.80;99.90
18880;DHT22;9572;52.378;13.404;2023-10-13T01:51:41;13.80;99.90
18880;DHT22;9572;52.378;13.404;2023-10-13T01:54:07;13.80;99.90
18880;DHT22;9572;52.378;13.404;2023-10-13T01:56:44;13.90;99.90
18880;DHT22;9572;52.378;13.404;2023-10-13T01:59:10;13.80;99.90
18880;DHT22;9572;52.378;13.404;2023-10-13T02:01:41;13.90;99.90
18880;DHT22;9572;52.378;13.404;2023-10-13T02:04:07;13.90;99.90
18880;DHT22;9572;52.378;13.404;2023-10-13T02:06:40;13.90;99.90
18880;DHT22;9572;52.378;13.404;2023-10-13T02:09:07;13.90;99.90
18880;DHT22;9572;52.378;13.404;2023-10-13T02:11:40;13.90;99.90
18880;DHT22;9572;52.378;13.404;2023-10-13T02:14:14;13.90;99.90
18880;DHT22;9572;52.378;13.404;2023-10-13T02:16:43;13.90;99.90
18880;DHT22;9572;52.378;13.404;2023-10-13T02:19:12;13.90;99.90
18880;DHT22;9572;52.378;13.404;2023-10-13T02:21:41;13.90;99.90
18880;DHT22;9572;52.378;13.404;2023-10-13T02:24:09;14.00;99.90
18880;DHT22;9572;52.378;13.404;2023-10-13T02:26:44;14.00;99.90
18880;DHT22;9572;52.378;13.404;2023-10-13T02:29:15;14.00;99.90
18880;DHT22;9572;52.378;13.404;2023-10-13T02:31:43;14.00;99.90
18880;DHT22;9572;52.378;13.404;2023-10-13T02:34:20;14.00;99.90
18880;DHT22;9572;52.378;13.404;2023-10-13T02:36:49;14.00;99.90
18880;DHT22;9572;52.378;13.404;2023-10-13T02:39:16;14.00;99.90
18880;DHT22;9572;52.378;13.404;2023-10-13T02:41:43;14.00;99.90
18880;DHT22;9572;52.378;13.404;2023-10-13T02:44:15;14.00;99.90
18880;DHT22;9572;52.378;13.404;2023-10-13T02:46:52;14.00;99.90
18880;DHT22;9572;52.378;13.404;2023-10-13T02:49:22;14.00;99.90
18880;DHT22;9572;52.378;13.404;2023-10-13T02:51:51;14.00;99.90
18880;DHT22;9572;52.378;13.404;2023-10-13T02:54:21;14.00;99.90
18880;DHT22;9572;52.378;13.404;2023-10-13T02:56:55;14.00;99.90
18880;DHT22;9572;52.378;13.404;2023-10-13T02:59:24;14.00;99.90
18880;DHT22;9572;52.378;13.404;2023-10-13T03:02:00;14.00;99.90
18880;DHT22;9572;52.378;13.404;2023-10-13T03:04:26;14.00;99.90
18880;DHT22;9572;52.378;13.404;2023-10-13T03:06:53;14.00;99.90
18880;DHT22;9572;52.378;13.404;2023-10-13T03:09:20;14.00;99.90
18880;DHT22;9572;52.378;13.404;2023-10-13T03:11:49;14.00;99.90
18880;DHT22;9572;52.378;13.404;2023-10-13T03:14:17;14.00;99.90
18880;DHT22;9572;52.378;13.404;2023-10-13T03:16:55;14.00;99.90
18880;DHT22;9572;52.378;13.404;2023-10-13T03:19:34;14.00;99.90
18880;DHT22;9572;52.378;13.404;2023-10-13T03:22:03;14.00;99.90
18880;DHT22;9572;52.378;13.404;2023-10-13T03:24:35;14.10;99.90
18880;DHT22;9572;52.378;13.404;2023-10-13T03:27:03;14.10;99.90
18880;DHT22;9572;52.378;13.404;2023-10-13T03:29:44;14.10;99.90
18880;DHT22;9572;52.378;13.404;2023-10-13T03:32:15;14.10;99.90
18880;DHT22;9572;52.378;13.404;2023-10-13T03:34:42;14.10;99.90
18880;DHT22;9572;52.378;13.404;2023-10-13T03:37:32;14.10;99.90
18880;DHT22;9572;52.378;13.404;2023-10-13T03:40:13;14.10;99.90
18880;DHT22;9572;52.378;13.404;2023-10-13T03:42:54;14.10;99.90
18880;DHT22;9572;52.378;13.404;2023-10-13T03:45:36;14.10;99.90
18880;DHT22;9572;52.378;13.404;2023-10-13T03:48:17;14.10;99.90
18880;DHT22;9572;52.378;13.404;2023-10-13T03:50:55;14.10;99.90
18880;DHT22;9572;52.378;13.404;2023-10-13T03:53:33;14.20;99.90
18880;DHT22;9572;52.378;13.404;2023-10-13T03:56:00;14.10;99.90
18880;DHT22;9572;52.378;13.404;2023-10-13T03:58:42;14.10;99.90
18880;DHT22;9572;52.378;13.404;2023-10-13T04:01:11;14.10;99.90
18880;DHT22;9572;52.378;13.404;2023-10-13T04:03:44;14.10;99.90
18880;DHT22;9572;52.378;13.404;2023-10-13T04:06:29;14.10;99.90
18880;DHT22;9572;52.378;13.404;2023-10-13T04:09:23;14.10;99.90
18880;DHT22;9572;52.378;13.404;2023-10-13T04:12:08;14.10;99.90
18880;DHT22;9572;52.378;13.404;2023-10-13T04:15:10;14.10;99.90
18880;DHT22;9572;52.378;13.404;2023-10-13T04:17:49;14.10;99.90
18880;DHT22;9572;52.378;13.404;2023-10-13T04:20:16;14.10;99.90
18880;DHT22;9572;52.378;13.404;2023-10-13T04:23:00;14.10;99.90
18880;DHT22;9572;52.378;13.404;2023-10-13T04:25:52;14.10;99.90
18880;DHT22;9572;52.378;13.404;2023-10-13T04:28:33;14.10;99.90
18880;DHT22;9572;52.378;13.404;2023-10-13T04:31:18;14.10;99.90
18880;DHT22;9572;52.378;13.404;2023-10-13T04:34:01;14.10;99.90
18880;DHT22;9572;52.378;13.404;2023-10-13T04:36:38;14.10;99.90
18880;DHT22;9572;52.378;13.404;2023-10-13T04:39:10;14.10;99.90
18880;DHT22;9572;52.378;13.404;2023-10-13T04:41:44;14.20;99.90
18880;DHT22;9572;52.378;13.404;2023-10-13T04:44:24;14.20;99.90
18880;DHT22;9572;52.378;13.404;2023-10-13T04:47:05;14.20;99.90
18880;DHT22;9572;52.378;13.404;2023-10-13T04:49:38;14.20;99.90
18880;DHT22;9572;52.378;13.404;2023-10-13T04:52:17;14.20;99.90
18880;DHT22;9572;52.378;13.404;2023-10-13T04:55:01;14.20;99.90
18880;DHT22;9572;52.378;13.404;2023-10-13T04:57:43;14.20;99.90
18880;DHT22;9572;52.378;13.404;2023-10-13T05:00:15;14.20;99.90
18880;DHT22;9572;52.378;13.404;2023-10-13T05:03:00;14.20;99.90
18880;DHT22;9572;52.378;13.404;2023-10-13T05:05:44;14.30;99.90
18880;DHT22;9572;52.378;13.404;2023-10-13T05:08:32;14.30;99.90
18880;DHT22;9572;52.378;13.404;2023-10-13T05:11:16;14.20;99.90
18880;DHT22;9572;52.378;13.404;2023-10-13T05:14:01;14.30;99.90
18880;DHT22;9572;52.378;13.404;2023-10-13T05:16:45;14.30;99.90
18880;DHT22;9572;52.378;13.404;2023-10-13T05:19:30;14.20;99.90
18880;DHT22;9572;52.378;13.404;2023-10-13T05:22:14;14.30;99.90
18880;DHT22;9572;52.378;13.404;2023-10-13T05:24:58;14.30;99.90
18880;DHT22;9572;52.378;13.404;2023-10-13T05:27:42;14.40;99.90
18880;DHT22;9572;52.378;13.404;2023-10-13T05:30:28;14.40;99.90
18880;DHT22;9572;52.378;13.404;2023-10-13T05:33:12;14.40;99.90
18880;DHT22;9572;52.378;13.404;2023-10-13T05:35:57;14.40;99.90
18880;DHT22;9572;52.378;13.404;2023-10-13T05:38:41;14.40;99.90
18880;DHT22;9572;52.378;13.404;2023-10-13T05:41:25;14.50;99.90
18880;DHT22;9572;52.378;13.404;2023-10-13T05:44:09;14.50;99.90
18880;DHT22;9572;52.378;13.404;2023-10-13T05:46:55;14.50;99.90
18880;DHT22;9572;52.378;13.404;2023-10-13T05:49:39;14.60;99.90
18880;DHT22;9572;52.378;13.404;2023-10-13T05:52:16;14.60;99.90
18880;DHT22;9572;52.378;13.404;2023-10-13T05:54:46;14.60;99.90
18880;DHT22;9572;52.378;13.404;2023-10-13T05:57:30;14.70;99.90
18880;DHT22;9572;52.378;13.404;2023-10-13T06:00:15;14.70;99.90
18880;DHT22;9572;52.378;13.404;2023-10-13T06:03:02;14.70;99.90
18880;DHT22;9572;52.378;13.404;2023-10-13T06:05:47;14.80;99.90
18880;DHT22;9572;52.378;13.404;2023-10-13T06:08:31;14.70;99.90
18880;DHT22;9572;52.378;13.404;2023-10-13T06:11:15;14.70;99.90
18880;DHT22;9572;52.378;13.404;2023-10-13T06:14:00;14.70;99.90
18880;DHT22;9572;52.378;13.404;2023-10-13T06:16:44;14.70;99.90
18880;DHT22;9572;52.378;13.404;2023-10-13T06:19:30;14.80;99.90
18880;DHT22;9572;52.378;13.404;2023-10-13T06:22:14;14.80;99.90
18880;DHT22;9572;52.378;13.404;2023-10-13T06:25:00;14.90;99.90
18880;DHT22;9572;52.378;13.404;2023-10-13T06:27:45;15.00;99.90
18880;DHT22;9572;52.378;13.404;2023-10-13T06:30:29;15.10;99.90
18880;DHT22;9572;52.378;13.404;2023-10-13T06:32:56;15.20;99.90
18880;DHT22;9572;52.378;13.404;2023-10-13T06:35:24;15.20;99.90
18880;DHT22;9572;52.378;13.404;2023-10-13T06:37:51;15.20;99.90
18880;DHT22;9572;52.378;13.404;2023-10-13T06:40:19;15.20;99.90
18880;DHT22;9572;52.378;13.404;2023-10-13T06:42:51;15.20;99.90
18880;DHT22;9572;52.378;13.404;2023-10-13T06:45:19;15.20;99.90
18880;DHT22;9572;52.378;13.404;2023-10-13T06:47:47;15.10;99.90
18880;DHT22;9572;52.378;13.404;2023-10-13T06:50:18;15.20;99.90
18880;DHT22;9572;52.378;13.404;2023-10-13T06:52:51;15.20;99.90
18880;DHT22;9572;52.378;13.404;2023-10-13T06:55:20;15.20;99.90
18880;DHT22;9572;52.378;13.404;2023-10-13T06:57:53;15.30;99.90
18880;DHT22;9572;52.378;13.404;2023-10-13T07:00:23;15.40;99.90
18880;DHT22;9572;52.378;13.404;2023-10-13T07:02:55;15.30;99.90
18880;DHT22;9572;52.378;13.404;2023-10-13T07:05:35;15.40;99.90
18880;DHT22;9572;52.378;13.404;2023-10-13T07:08:05;15.40;99.90
18880;DHT22;9572;52.378;13.404;2023-10-13T07:10:32;15.50;99.90
18880;DHT22;9572;52.378;13.404;2023-10-13T07:13:10;15.70;99.90
18880;DHT22;9572;52.378;13.404;2023-10-13T07:15:40;15.80;99.90
18880;DHT22;9572;52.378;13.404;2023-10-13T07:18:12;15.90;99.90
18880;DHT22;9572;52.378;13.404;2023-10-13T07:20:40;15.90;99.90
18880;DHT22;9572;52.378;13.404;2023-10-13T07:23:14;16.00;99.90
18880;DHT22;9572;52.378;13.404;2023-10-13T07:25:52;16.00;99.90
18880;DHT22;9572;52.378;13.404;2023-10-13T07:28:21;16.10;99.90
18880;DHT22;9572;52.378;13.404;2023-10-13T07:30:49;16.20;99.90
18880;DHT22;9572;52.378;13.404;2023-10-13T07:33:37;16.20;99.90
18880;DHT22;9572;52.378;13.404;2023-10-13T07:36:13;16.30;99.90
18880;DHT22;9572;52.378;13.404;2023-10-13T07:38:45;16.40;99.90
18880;DHT22;9572;52.378;13.404;2023-10-13T07:41:36;16.40;99.90
18880;DHT22;9572;52.378;13.404;2023-10-13T07:44:04;16.60;99.90
18880;DHT22;9572;52.378;13.404;2023-10-13T07:46:32;16.50;99.90
18880;DHT22;9572;52.378;13.404;2023-10-13T07:49:01;16.60;99.90
18880;DHT22;9572;52.378;13.404;2023-10-13T07:51:39;16.70;99.90
18880;DHT22;9572;52.378;13.404;2023-10-13T07:54:14;16.70;99.90
18880;DHT22;9572;52.378;13.404;2023-10-13T07:56:47;16.70;99.90
18880;DHT22;9572;52.378;13.404;2023-10-13T07:59:22;16.80;99.90
18880;DHT22;9572;52.378;13.404;2023-10-13T08:01:49;17.00;99.90
18880;DHT22;9572;52.378;13.404;2023-10-13T08:04:37;17.00;99.90
18880;DHT22;9572;52.378;13.404;2023-10-13T08:07:05;17.10;99.90
18880;DHT22;9572;52.378;13.404;2023-10-13T08:09:45;17.10;99.90
18880;DHT22;9572;52.378;13.404;2023-10-13T08:12:17;17.20;99.90
18880;DHT22;9572;52.378;13.404;2023-10-13T08:14:53;17.20;99.90
18880;DHT22;9572;52.378;13.404;2023-10-13T08:17:46;17.20;99.90
18880;DHT22;9572;52.378;13.404;2023-10-13T08:20:14;17.20;99.90
18880;DHT22;9572;52.378;13.404;2023-10-13T08:22:42;17.20;99.90
18880;DHT22;9572;52.378;13.404;2023-10-13T08:25:14;17.30;99.90
18880;DHT22;9572;52.378;13.404;2023-10-13T08:28:09;17.40;99.90
18880;DHT22;9572;52.378;13.404;2023-10-13T08:30:50;17.60;99.90
18880;DHT22;9572;52.378;13.404;2023-10-13T08:33:23;17.70;99.90
18880;DHT22;9572;52.378;13.404;2023-10-13T08:35:53;17.70;99.90
18880;DHT22;9572;52.378;13.404;2023-10-13T08:38:43;17.70;99.90
18880;DHT22;9572;52.378;13.404;2023-10-13T08:41:21;17.80;99.90
18880;DHT22;9572;52.378;13.404;2023-10-13T08:44:20;17.80;99.90
18880;DHT22;9572;52.378;13.404;2023-10-13T08:47:09;17.80;99.90
18880;DHT22;9572;52.378;13.404;2023-10-13T08:50:12;17.80;99.90
18880;DHT22;9572;52.378;13.404;2023-10-13T08:53:02;17.80;99.90
18880;DHT22;9572;52.378;13.404;2023-10-13T08:55:36;17.90;99.90
18880;DHT22;9572;52.378;13.404;2023-10-13T08:58:15;18.00;99.90
18880;DHT22;9572;52.378;13.404;2023-10-13T09:00:47;18.00;99.90
18880;DHT22;9572;52.378;13.404;2023-10-13T09:03:45;17.90;99.90
18880;DHT22;9572;52.378;13.404;2023-10-13T09:06:15;18.00;99.90
18880;DHT22;9572;52.378;13.404;2023-10-13T09:09:06;18.00;99.90
18880;DHT22;9572;52.378;13.404;2023-10-13T09:11:49;18.10;99.90
18880;DHT22;9572;52.378;13.404;2023-10-13T09:14:21;18.10;99.90
18880;DHT22;9572;52.378;13.404;2023-10-13T09:17:07;18.00;99.90
18880;DHT22;9572;52.378;13.404;2023-10-13T09:19:47;18.10;99.90
18880;DHT22;9572;52.378;13.404;2023-10-13T09:22:19;18.00;99.90
18880;DHT22;9572;52.378;13.404;2023-10-13T09:24:57;18.00;99.90
18880;DHT22;9572;52.378;13.404;2023-10-13T09:27:27;18.00;99.90
18880;DHT22;9572;52.378;13.404;2023-10-13T09:29:57;18.20;99.90
18880;DHT22;9572;52.378;13.404;2023-10-13T09:32:25;18.20;99.90
18880;DHT22;9572;52.378;13.404;2023-10-13T09:35:01;18.20;99.90
18880;DHT22;9572;52.378;13.404;2023-10-13T09:37:28;18.30;99.90
18880;DHT22;9572;52.378;13.404;2023-10-13T09:39:59;18.20;99.90
18880;DHT22;9572;52.378;13.404;2023-10-13T09:42:46;18.20;99.90
18880;DHT22;9572;52.378;13.404;2023-10-13T09:45:15;18.20;99.90
18880;DHT22;9572;52.378;13.404;2023-10-13T09:47:45;18.10;99.90
18880;DHT22;9572;52.378;13.404;2023-10-13T09:50:14;18.10;99.90
18880;DHT22;9572;52.378;13.404;2023-10-13T09:52:50;18.00;99.90
18880;DHT22;9572;52.378;13.404;2023-10-13T09:55:24;18.00;99.90
18880;DHT22;9572;52.378;13.404;2023-10-13T09:57:58;18.00;99.90
18880;DHT22;9572;52.378;13.404;2023-10-13T10:00:39;18.10;99.90
18880;DHT22;9572;52.378;13.404;2023-10-13T10:03:32;18.00;99.90
18880;DHT22;9572;52.378;13.404;2023-10-13T10:06:08;18.10;99.90
18880;DHT22;9572;52.378;13.404;2023-10-13T10:08:44;18.20;99.90
18880;DHT22;9572;52.378;13.404;2023-10-13T10:14:27;18.40;99.90
18880;DHT22;9572;52.378;13.404;2023-10-13T10:17:04;18.50;99.90
18880;DHT22;9572;52.378;13.404;2023-10-13T10:19:48;18.60;99.90
18880;DHT22;9572;52.378;13.404;2023-10-13T10:22:27;18.70;99.90
18880;DHT22;9572;52.378;13.404;2023-10-13T10:24:59;18.70;99.90
18880;DHT22;9572;52.378;13.404;2023-10-13T10:27:54;18.70;99.90
18880;DHT22;9572;52.378;13.404;2023-10-13T10:30:24;18.70;99.90
18880;DHT22;9572;52.378;13.404;2023-10-13T10:32:56;18.70;99.90
18880;DHT22;9572;52.378;13.404;2023-10-13T10:35:34;18.70;99.90
18880;DHT22;9572;52.378;13.404;2023-10-13T10:38:08;18.60;99.90
18880;DHT22;9572;52.378;13.404;2023-10-13T10:40:50;18.60;99.90
18880;DHT22;9572;52.378;13.404;2023-10-13T10:43:24;18.70;99.90
18880;DHT22;9572;52.378;13.404;2023-10-13T10:45:52;18.60;99.90
18880;DHT22;9572;52.378;13.404;2023-10-13T10:48:26;18.60;99.90
18880;DHT22;9572;52.378;13.404;2023-10-13T10:51:00;18.50;99.90
18880;DHT22;9572;52.378;13.404;2023-10-13T10:53:39;18.50;99.90
18880;DHT22;9572;52.378;13.404;2023-10-13T10:56:10;18.60;99.90
18880;DHT22;9572;52.378;13.404;2023-10-13T10:58:50;18.60;99.90
18880;DHT22;9572;52.378;13.404;2023-10-13T11:01:20;18.60;99.90
18880;DHT22;9572;52.378;13.404;2023-10-13T11:03:55;18.60;99.90
18880;DHT22;9572;52.378;13.404;2023-10-13T11:06:24;18.60;99.90
18880;DHT22;9572;52.378;13.404;2023-10-13T11:09:02;18.60;99.90
18880;DHT22;9572;52.378;13.404;2023-10-13T11:11:30;18.60;99.90
18880;DHT22;9572;52.378;13.404;2023-10-13T11:14:01;18.60;99.90
18880;DHT22;9572;52.378;13.404;2023-10-13T11:16:46;18.70;99.90
18880;DHT22;9572;52.378;13.404;2023-10-13T11:19:33;18.70;99.90
18880;DHT22;9572;52.378;13.404;2023-10-13T11:22:10;18.70;99.90
18880;DHT22;9572;52.378;13.404;2023-10-13T11:24:55;18.60;99.90
18880;DHT22;9572;52.378;13.404;2023-10-13T11:27:28;18.70;99.90
18880;DHT22;9572;52.378;13.404;2023-10-13T11:30:10;18.70;99.90
18880;DHT22;9572;52.378;13.404;2023-10-13T11:32:57;18.70;99.90
18880;DHT22;9572;52.378;13.404;2023-10-13T11:35:35;18.80;99.90
18880;DHT22;9572;52.378;13.404;2023-10-13T11:38:20;18.90;99.90
18880;DHT22;9572;52.378;13.404;2023-10-13T11:40:56;18.90;99.90
18880;DHT22;9572;52.378;13.404;2023-10-13T11:43:34;18.90;99.90
18880;DHT22;9572;52.378;13.404;2023-10-13T11:46:19;18.90;99.90
18880;DHT22;9572;52.378;13.404;2023-10-13T11:49:11;18.90;99.90
18880;DHT22;9572;52.378;13.404;2023-10-13T11:51:46;19.00;99.90
18880;DHT22;9572;52.378;13.404;2023-10-13T11:54:13;19.10;99.90
18880;DHT22;9572;52.378;13.404;2023-10-13T11:56:41;19.20;99.90
18880;DHT22;9572;52.378;13.404;2023-10-13T11:59:10;19.20;99.90
18880;DHT22;9572;52.378;13.404;2023-10-13T12:01:44;19.40;99.90
18880;DHT22;9572;52.378;13.404;2023-10-13T12:04:29;19.50;99.90
18880;DHT22;9572;52.378;13.404;2023-10-13T12:07:07;19.40;99.90
18880;DHT22;9572;52.378;13.404;2023-10-13T12:09:53;19.40;99.90
18880;DHT22;9572;52.378;13.404;2023-10-13T12:12:32;19.50;99.90
18880;DHT22;9572;52.378;13.404;2023-10-13T12:15:06;19.50;99.90
18880;DHT22;9572;52.378;13.404;2023-10-13T12:17:50;19.60;99.90
18880;DHT22;9572;52.378;13.404;2023-10-13T12:20:23;19.50;99.90
18880;DHT22;9572;52.378;13.404;2023-10-13T12:23:06;19.50;99.90
18880;DHT22;9572;52.378;13.404;2023-10-13T12:25:41;19.60;99.90
18880;DHT22;9572;52.378;13.404;2023-10-13T12:28:21;19.70;99.90
18880;DHT22;9572;52.378;13.404;2023-10-13T12:30:53;19.60;99.90
18880;DHT22;9572;52.378;13.404;2023-10-13T12:33:20;19.70;99.90
18880;DHT22;9572;52.378;13.404;2023-10-13T12:36:01;19.70;99.90
18880;DHT22;9572;52.378;13.404;2023-10-13T12:38:57;19.80;99.90
18880;DHT22;9572;52.378;13.404;2023-10-13T12:41:41;19.80;99.90
18880;DHT22;9572;52.378;13.404;2023-10-13T12:44:25;19.80;99.90
18880;DHT22;9572;52.378;13.404;2023-10-13T12:47:12;19.90;99.90
18880;DHT22;9572;52.378;13.404;2023-10-13T12:49:56;19.90;99.90
18880;DHT22;9572;52.378;13.404;2023-10-13T12:52:34;19.90;99.90
18880;DHT22;9572;52.378;13.404;2023-10-13T12:55:03;20.00;99.90
18880;DHT22;9572;52.378;13.404;2023-10-13T12:57:35;20.10;99.90
18880;DHT22;9572;52.378;13.404;2023-10-13T13:00:10;20.20;99.90
18880;DHT22;9572;52.378;13.404;2023-10-13T13:02:46;20.30;99.90
18880;DHT22;9572;52.378;13.404;2023-10-13T13:05:16;20.40;99.90
18880;DHT22;9572;52.378;13.404;2023-10-13T13:07:46;20.30;99.90
18880;DHT22;9572;52.378;13.404;2023-10-13T13:10:28;20.40;99.90
18880;DHT22;9572;52.378;13.404;2023-10-13T13:13:13;20.40;99.90
18880;DHT22;9572;52.378;13.404;2023-10-13T13:15:42;20.40;99.90
18880;DHT22;9572;52.378;13.404;2023-10-13T13:18:09;20.50;99.90
18880;DHT22;9572;52.378;13.404;2023-10-13T13:20:43;20.50;99.90
18880;DHT22;9572;52.378;13.404;2023-10-13T13:23:20;20.60;99.90
18880;DHT22;9572;52.378;13.404;2023-10-13T13:25:54;20.70;99.90
18880;DHT22;9572;52.378;13.404;2023-10-13T13:28:23;20.80;99.90
18880;DHT22;9572;52.378;13.404;2023-10-13T13:30:50;20.90;99.90
18880;DHT22;9572;52.378;13.404;2023-10-13T13:33:20;20.90;99.90
18880;DHT22;9572;52.378;13.404;2023-10-13T13:35:54;21.00;99.90
18880;DHT22;9572;52.378;13.404;2023-10-13T13:38:25;21.00;99.90
18880;DHT22;9572;52.378;13.404;2023-10-13T13:40:59;21.00;99.90
18880;DHT22;9572;52.378;13.404;2023-10-13T13:43:35;21.00;99.90
18880;DHT22;9572;52.378;13.404;2023-10-13T13:46:16;21.10;99.90
18880;DHT22;9572;52.378;13.404;2023-10-13T13:48:43;21.10;99.90
18880;DHT22;9572;52.378;13.404;2023-10-13T13:51:13;21.10;99.90
18880;DHT22;9572;52.378;13.404;2023-10-13T13:53:41;21.00;99.90
18880;DHT22;9572;52.378;13.404;2023-10-13T13:56:27;21.00;99.90
18880;DHT22;9572;52.378;13.404;2023-10-13T13:58:54;21.10;99.90
18880;DHT22;9572;52.378;13.404;2023-10-13T14:01:22;21.10;99.90
18880;DHT22;9572;52.378;13.404;2023-10-13T14:03:52;21.20;99.90
18880;DHT22;9572;52.378;13.404;2023-10-13T14:06:24;21.40;99.90
18880;DHT22;9572;52.378;13.404;2023-10-13T14:08:53;21.30;99.90
18880;DHT22;9572;52.378;13.404;2023-10-13T14:11:23;21.30;99.90
18880;DHT22;9572;52.378;13.404;2023-10-13T14:14:17;21.40;99.90
18880;DHT22;9572;52.378;13.404;2023-10-13T14:16:59;21.30;99.90
18880;DHT22;9572;52.378;13.404;2023-10-13T14:19:42;21.30;99.90
18880;DHT22;9572;52.378;13.404;2023-10-13T14:22:11;21.20;99.90
18880;DHT22;9572;52.378;13.404;2023-10-13T14:24:40;21.20;99.90
18880;DHT22;9572;52.378;13.404;2023-10-13T14:27:13;21.10;99.90
18880;DHT22;9572;52.378;13.404;2023-10-13T14:29:44;21.10;99.90
18880;DHT22;9572;52.378;13.404;2023-10-13T14:32:13;21.10;99.90
18880;DHT22;9572;52.378;13.404;2023-10-13T14:34:41;21.10;99.90
18880;DHT22;9572;52.378;13.404;2023-10-13T14:37:09;21.20;99.90
18880;DHT22;9572;52.378;13.404;2023-10-13T14:39:51;21.10;99.90
18880;DHT22;9572;52.378;13.404;2023-10-13T14:42:22;21.20;99.90
18880;DHT22;9572;52.378;13.404;2023-10-13T14:44:55;21.20;99.90
18880;DHT22;9572;52.378;13.404;2023-10-13T14:47:22;21.10;99.90
18880;DHT22;9572;52.378;13.404;2023-10-13T14:49:51;21.10;99.90
18880;DHT22;9572;52.378;13.404;2023-10-13T14:52:20;21.10;99.90
18880;DHT22;9572;52.378;13.404;2023-10-13T14:54:47;21.10;99.90
18880;DHT22;9572;52.378;13.404;2023-10-13T14:57:22;21.00;99.90
18880;DHT22;9572;52.378;13.404;2023-10-13T14:59:54;21.10;99.90
18880;DHT22;9572;52.378;13.404;2023-10-13T15:02:22;21.00;99.90
18880;DHT22;9572;52.378;13.404;2023-10-13T15:04:49;21.00;99.90
18880;DHT22;9572;52.378;13.404;2023-10-13T15:07:17;21.00;99.90
18880;DHT22;9572;52.378;13.404;2023-10-13T15:09:45;20.90;99.90
18880;DHT22;9572;52.378;13.404;2023-10-13T15:12:12;20.90;99.90
18880;DHT22;9572;52.378;13.404;2023-10-13T15:14:39;20.80;99.90
18880;DHT22;9572;52.378;13.404;2023-10-13T15:17:09;20.80;99.90
18880;DHT22;9572;52.378;13.404;2023-10-13T15:19:36;20.70;99.90
18880;DHT22;9572;52.378;13.404;2023-10-13T15:22:04;20.70;99.90
18880;DHT22;9572;52.378;13.404;2023-10-13T15:24:32;20.60;99.90
18880;DHT22;9572;52.378;13.404;2023-10-13T15:27:07;20.50;99.90
18880;DHT22;9572;52.378;13.404;2023-10-13T15:29:34;20.70;99.90
18880;DHT22;9572;52.378;13.404;2023-10-13T15:32:02;20.70;99.90
18880;DHT22;9572;52.378;13.404;2023-10-13T15:34:47;20.60;99.90
18880;DHT22;9572;52.378;13.404;2023-10-13T15:37:14;20.60;99.90
18880;DHT22;9572;52.378;13.404;2023-10-13T15:39:41;20.50;99.90
18880;DHT22;9572;52.378;13.404;2023-10-13T15:42:08;20.50;99.90
18880;DHT22;9572;52.378;13.404;2023-10-13T15:44:35;20.60;99.90
18880;DHT22;9572;52.378;13.404;2023-10-13T15:47:02;20.60;99.90
18880;DHT22;9572;52.378;13.404;2023-10-13T15:49:29;20.50;99.90
18880;DHT22;9572;52.378;13.404;2023-10-13T15:51:59;20.50;99.90
18880;DHT22;9572;52.378;13.404;2023-10-13T15:54:26;20.50;99.90
18880;DHT22;9572;52.378;13.404;2023-10-13T15:56:53;20.50;99.90
18880;DHT22;9572;52.378;13.404;2023-10-13T15:59:20;20.50;99.90
18880;DHT22;9572;52.378;13.404;2023-10-13T16:01:48;20.60;99.90
18880;DHT22;9572;52.378;13.404;2023-10-13T16:04:20;20.60;99.90
18880;DHT22;9572;52.378;13.404;2023-10-13T16:06:47;20.50;99.90
18880;DHT22;9572;52.378;13.404;2023-10-13T16:09:17;20.50;99.90
18880;DHT22;9572;52.378;13.404;2023-10-13T16:11:49;20.50;99.90
18880;DHT22;9572;52.378;13.404;2023-10-13T16:14:16;20.50;99.90
18880;DHT22;9572;52.378;13.404;2023-10-13T16:16:45;20.40;99.90
18880;DHT22;9572;52.378;13.404;2023-10-13T16:19:13;20.40;99.90
18880;DHT22;9572;52.378;13.404;2023-10-13T16:21:43;20.40;99.90
18880;DHT22;9572;52.378;13.404;2023-10-13T16:24:11;20.40;99.90